Time;durP1;ratioP1;P1;durP2;ratioP2;P2;SDS_P1;SDS_P2;PMS_P1;PMS_P2;Temp;Humidity;BMP_temperature;BMP_pressure;BME280_temperature;BME280_humidity;BME280_pressure;Samples;Min_cycle;Max_cycle;Signal;HPM_P1;HPM_P2
2021/04/12 00:00:33;;;;;;;2.6;2.4;;;;;;;9.96;58.22266;94923.71;;;;
2021/04/12 00:01:38;;;;;;;2.6;2.4;;;;;;;9.96;58.22266;94923.71;;;;
2021/04/12 00:02:45;;;;;;;2.6;2.4;;;;;;;9.96;58.22266;94923.71;;;;
2021/04/12 00:03:48;;;;;;;2.6;2.4;;;;;;;9.96;58.22266;94923.71;;;;
2021/04/12 00:04:53;;;;;;;2.6;2.4;;;;;;;9.96;58.22266;94923.71;;;;
2021/04/12 00:06:05;;;;;;;2.6;2.4;;;;;;;9.96;58.22266;94923.71;;;;
2021/04/12 00:07:12;;;;;;;2.3;2.1;;;;;;;9.96;58.49023;94926.92;;;;
2021/04/12 00:08:18;;;;;;;2.3;2.1;;;;;;;9.96;58.49023;94926.92;;;;
2021/04/12 00:09:31;;;;;;;2.3;2.1;;;;;;;9.96;58.49023;94926.92;;;;
2021/04/12 00:10:37;;;;;;;2.3;2.1;;;;;;;9.96;58.49023;94926.92;;;;
2021/04/12 00:11:53;;;;;;;2.3;2.1;;;;;;;9.96;58.49023;94926.92;;;;
2021/04/12 00:12:58;;;;;;;2.3;2.1;;;;;;;9.96;58.49023;94926.92;;;;
2021/04/12 00:14:05;;;;;;;2.3;2.1;;;;;;;9.96;58.49023;94926.92;;;;
2021/04/12 00:15:10;;;;;;;2.3;2.1;;;;;;;9.96;58.49023;94926.92;;;;
2021/04/12 00:16:19;;;;;;;2.3;2.1;;;;;;;9.96;58.49023;94926.92;;;;
2021/04/12 00:17:26;;;;;;;2.25;2.1;;;;;;;10;58.70117;94922.14;;;;
2021/04/12 00:18:32;;;;;;;2.25;2.1;;;;;;;10;58.70117;94922.14;;;;
2021/04/12 00:19:39;;;;;;;2.25;2.1;;;;;;;10;58.70117;94922.14;;;;
2021/04/12 00:20:47;;;;;;;2.25;2.1;;;;;;;10;58.70117;94922.14;;;;
2021/04/12 00:21:53;;;;;;;2.25;2.1;;;;;;;10;58.70117;94922.14;;;;
2021/04/12 00:23:00;;;;;;;2.25;2.1;;;;;;;10;58.70117;94922.14;;;;
2021/04/12 00:24:08;;;;;;;2.25;2.1;;;;;;;10;58.70117;94922.14;;;;
2021/04/12 00:25:15;;;;;;;2.25;2.1;;;;;;;10;58.70117;94922.14;;;;
2021/04/12 00:26:24;;;;;;;2.25;2.1;;;;;;;10;58.70117;94922.14;;;;
2021/04/12 00:27:30;;;;;;;2.25;2.1;;;;;;;10;58.70117;94922.14;;;;
2021/04/12 00:28:35;;;;;;;2.6;2.4;;;;;;;10.04;58.99609;94908.47;;;;
2021/04/12 00:29:40;;;;;;;2.6;2.4;;;;;;;10.04;58.99609;94908.47;;;;
2021/04/12 00:30:46;;;;;;;2.6;2.4;;;;;;;10.04;58.99609;94908.47;;;;
2021/04/12 00:31:52;;;;;;;2.6;2.4;;;;;;;10.04;58.99609;94908.47;;;;
2021/04/12 00:32:58;;;;;;;2.6;2.4;;;;;;;10.04;58.99609;94908.47;;;;
2021/04/12 00:34:04;;;;;;;2.6;2.4;;;;;;;10.04;58.99609;94908.47;;;;
2021/04/12 00:35:12;;;;;;;2.6;2.4;;;;;;;10.04;58.99609;94908.47;;;;
2021/04/12 00:36:18;;;;;;;2.6;2.4;;;;;;;10.04;58.99609;94908.47;;;;
2021/04/12 00:37:24;;;;;;;2.6;2.4;;;;;;;10.04;58.99609;94908.47;;;;
2021/04/12 00:38:33;;;;;;;2.7;2.5;;;;;;;9.99;59.24707;94906.1;;;;
2021/04/12 00:39:39;;;;;;;2.7;2.5;;;;;;;9.99;59.24707;94906.1;;;;
2021/04/12 00:40:43;;;;;;;2.7;2.5;;;;;;;9.99;59.24707;94906.1;;;;
2021/04/12 00:41:49;;;;;;;2.7;2.5;;;;;;;9.99;59.24707;94906.1;;;;
2021/04/12 00:43:05;;;;;;;2.7;2.5;;;;;;;9.99;59.24707;94906.1;;;;
2021/04/12 00:44:13;;;;;;;2.7;2.5;;;;;;;9.99;59.24707;94906.1;;;;
2021/04/12 00:45:26;;;;;;;2.7;2.5;;;;;;;9.99;59.24707;94906.1;;;;
2021/04/12 00:46:36;;;;;;;2.7;2.5;;;;;;;9.99;59.24707;94906.1;;;;
2021/04/12 00:47:49;;;;;;;2.7;2.5;;;;;;;9.99;59.24707;94906.1;;;;
2021/04/12 00:49:04;;;;;;;2.55;2.35;;;;;;;9.94;59.78711;94912.34;;;;
2021/04/12 00:50:34;;;;;;;2.55;2.35;;;;;;;9.94;59.78711;94912.34;;;;
2021/04/12 00:51:42;;;;;;;2.55;2.35;;;;;;;9.94;59.78711;94912.34;;;;
2021/04/12 00:52:49;;;;;;;2.55;2.35;;;;;;;9.94;59.78711;94912.34;;;;
2021/04/12 00:55:03;;;;;;;2.55;2.35;;;;;;;9.94;59.78711;94912.34;;;;
2021/04/12 00:56:18;;;;;;;2.55;2.35;;;;;;;9.94;59.78711;94912.34;;;;
2021/04/12 00:57:26;;;;;;;2.55;2.35;;;;;;;9.94;59.78711;94912.34;;;;
2021/04/12 00:58:41;;;;;;;2.55;2.35;;;;;;;9.94;59.78711;94912.34;;;;
2021/04/12 00:59:50;;;;;;;2.5;2.35;;;;;;;9.86;60.28027;94918.1;;;;
2021/04/12 01:01:01;;;;;;;2.5;2.35;;;;;;;9.86;60.28027;94918.1;;;;
2021/04/12 01:02:14;;;;;;;2.5;2.35;;;;;;;9.86;60.28027;94918.1;;;;
2021/04/12 01:03:30;;;;;;;2.5;2.35;;;;;;;9.86;60.28027;94918.1;;;;
2021/04/12 01:04:46;;;;;;;2.5;2.35;;;;;;;9.86;60.28027;94918.1;;;;
2021/04/12 01:05:57;;;;;;;2.5;2.35;;;;;;;9.86;60.28027;94918.1;;;;
2021/04/12 01:07:09;;;;;;;2.5;2.35;;;;;;;9.86;60.28027;94918.1;;;;
2021/04/12 01:08:25;;;;;;;2.5;2.35;;;;;;;9.86;60.28027;94918.1;;;;
2021/04/12 01:09:48;;;;;;;2.5;2.35;;;;;;;9.86;60.28027;94918.1;;;;
2021/04/12 01:13:24;;;;;;;2.65;2.45;;;;;;;9.88;60.5498;94921.91;;;;
2021/04/12 01:14:44;;;;;;;2.65;2.45;;;;;;;9.88;60.5498;94921.91;;;;
2021/04/12 01:16:02;;;;;;;2.65;2.45;;;;;;;9.88;60.5498;94921.91;;;;
2021/04/12 01:17:17;;;;;;;2.65;2.45;;;;;;;9.88;60.5498;94921.91;;;;
2021/04/12 01:18:32;;;;;;;2.65;2.45;;;;;;;9.88;60.5498;94921.91;;;;
2021/04/12 01:19:58;;;;;;;2.65;2.45;;;;;;;9.88;60.5498;94921.91;;;;
2021/04/12 01:25:23;;;;;;;2.5;2.3;;;;;;;9.9;60.74609;94924.25;;;;
2021/04/12 01:31:45;;;;;;;2.85;2.4;;;;;;;9.92;61.07129;94927.53;;;;
2021/04/12 01:33:05;;;;;;;2.85;2.4;;;;;;;9.92;61.07129;94927.53;;;;
2021/04/12 01:34:29;;;;;;;2.85;2.4;;;;;;;9.92;61.07129;94927.53;;;;
2021/04/12 01:39:43;;;;;;;2.85;2.4;;;;;;;9.92;61.07129;94927.53;;;;
2021/04/12 01:40:54;;;;;;;2.85;2.4;;;;;;;9.92;61.07129;94927.53;;;;
2021/04/12 01:42:17;;;;;;;2.85;2.4;;;;;;;9.92;61.07129;94927.53;;;;
2021/04/12 01:43:30;;;;;;;2.5;2.299999;;;;;;;9.96;61.44141;94926.92;;;;
2021/04/12 01:44:57;;;;;;;2.5;2.299999;;;;;;;9.96;61.44141;94926.92;;;;
2021/04/12 01:46:13;;;;;;;2.5;2.299999;;;;;;;9.96;61.44141;94926.92;;;;
2021/04/12 01:47:20;;;;;;;2.5;2.299999;;;;;;;9.96;61.44141;94926.92;;;;
2021/04/12 01:48:45;;;;;;;2.5;2.299999;;;;;;;9.96;61.44141;94926.92;;;;
2021/04/12 01:49:55;;;;;;;2.5;2.299999;;;;;;;9.96;61.44141;94926.92;;;;
2021/04/12 01:51:15;;;;;;;2.5;2.299999;;;;;;;9.96;61.44141;94926.92;;;;
2021/04/12 01:52:29;;;;;;;2.5;2.299999;;;;;;;9.96;61.44141;94926.92;;;;
2021/04/12 01:53:42;;;;;;;2.85;2.3;;;;;;;9.89;61.52832;94932.86;;;;
2021/04/12 01:54:58;;;;;;;2.85;2.3;;;;;;;9.89;61.52832;94932.86;;;;
2021/04/12 01:56:15;;;;;;;2.85;2.3;;;;;;;9.89;61.52832;94932.86;;;;
2021/04/12 01:57:49;;;;;;;2.85;2.3;;;;;;;9.89;61.52832;94932.86;;;;
2021/04/12 01:59:14;;;;;;;2.85;2.3;;;;;;;9.89;61.52832;94932.86;;;;
2021/04/12 02:00:28;;;;;;;2.85;2.3;;;;;;;9.89;61.52832;94932.86;;;;
2021/04/12 02:01:38;;;;;;;2.85;2.3;;;;;;;9.89;61.52832;94932.86;;;;
2021/04/12 02:02:52;;;;;;;2.85;2.3;;;;;;;9.89;61.52832;94932.86;;;;
2021/04/12 02:04:01;;;;;;;2.2;2;;;;;;;9.9;61.61426;94938.67;;;;
2021/04/12 02:05:12;;;;;;;2.2;2;;;;;;;9.9;61.61426;94938.67;;;;
2021/04/12 02:06:25;;;;;;;2.2;2;;;;;;;9.9;61.61426;94938.67;;;;
2021/04/12 02:08:09;;;;;;;2.2;2;;;;;;;9.9;61.61426;94938.67;;;;
2021/04/12 02:09:20;;;;;;;2.2;2;;;;;;;9.9;61.61426;94938.67;;;;
2021/04/12 02:14:39;;;;;;;2.1;2;;;;;;;9.83;61.78711;94935.71;;;;
2021/04/12 02:15:59;;;;;;;2.1;2;;;;;;;9.83;61.78711;94935.71;;;;
2021/04/12 02:17:13;;;;;;;2.1;2;;;;;;;9.83;61.78711;94935.71;;;;
2021/04/12 02:18:21;;;;;;;2.1;2;;;;;;;9.83;61.78711;94935.71;;;;
2021/04/12 02:19:47;;;;;;;2.1;2;;;;;;;9.83;61.78711;94935.71;;;;
2021/04/12 02:20:53;;;;;;;2.1;2;;;;;;;9.83;61.78711;94935.71;;;;
2021/04/12 02:22:02;;;;;;;2.1;2;;;;;;;9.83;61.78711;94935.71;;;;
2021/04/12 02:23:17;;;;;;;2.1;2;;;;;;;9.83;61.78711;94935.71;;;;
2021/04/12 02:24:31;;;;;;;2.1;2;;;;;;;9.83;61.78711;94935.71;;;;
2021/04/12 02:25:37;;;;;;;2.3;2.1;;;;;;;9.84;62.01367;94937.33;;;;
2021/04/12 02:26:52;;;;;;;2.3;2.1;;;;;;;9.84;62.01367;94937.33;;;;
2021/04/12 02:28:03;;;;;;;2.3;2.1;;;;;;;9.84;62.01367;94937.33;;;;
2021/04/12 02:29:19;;;;;;;2.3;2.1;;;;;;;9.84;62.01367;94937.33;;;;
2021/04/12 02:30:36;;;;;;;2.3;2.1;;;;;;;9.84;62.01367;94937.33;;;;
2021/04/12 02:31:48;;;;;;;2.3;2.1;;;;;;;9.84;62.01367;94937.33;;;;
2021/04/12 02:32:59;;;;;;;2.3;2.1;;;;;;;9.84;62.01367;94937.33;;;;
2021/04/12 02:34:10;;;;;;;2.3;2.1;;;;;;;9.84;62.01367;94937.33;;;;
2021/04/12 02:35:24;;;;;;;2.3;2.1;;;;;;;9.84;62.01367;94937.33;;;;
2021/04/12 02:36:35;;;;;;;2.3;2.1;;;;;;;9.76;62.21777;94934.51;;;;
2021/04/12 02:37:45;;;;;;;2.3;2.1;;;;;;;9.76;62.21777;94934.51;;;;
2021/04/12 02:38:59;;;;;;;2.3;2.1;;;;;;;9.76;62.21777;94934.51;;;;
2021/04/12 02:40:04;;;;;;;2.3;2.1;;;;;;;9.76;62.21777;94934.51;;;;
2021/04/12 02:41:19;;;;;;;2.3;2.1;;;;;;;9.76;62.21777;94934.51;;;;
2021/04/12 02:42:39;;;;;;;2.3;2.1;;;;;;;9.76;62.21777;94934.51;;;;
2021/04/12 02:43:54;;;;;;;2.3;2.1;;;;;;;9.76;62.21777;94934.51;;;;
2021/04/12 02:45:12;;;;;;;2.3;2.1;;;;;;;9.76;62.21777;94934.51;;;;
2021/04/12 02:46:29;;;;;;;2.8;2.6;;;;;;;9.77;62.51953;94951.48;;;;
2021/04/12 02:47:53;;;;;;;2.8;2.6;;;;;;;9.77;62.51953;94951.48;;;;
2021/04/12 02:49:05;;;;;;;2.8;2.6;;;;;;;9.77;62.51953;94951.48;;;;
2021/04/12 02:50:16;;;;;;;2.8;2.6;;;;;;;9.77;62.51953;94951.48;;;;
2021/04/12 02:51:28;;;;;;;2.8;2.6;;;;;;;9.77;62.51953;94951.48;;;;
2021/04/12 02:52:50;;;;;;;2.8;2.6;;;;;;;9.77;62.51953;94951.48;;;;
2021/04/12 02:54:03;;;;;;;2.8;2.6;;;;;;;9.77;62.51953;94951.48;;;;
2021/04/12 02:55:32;;;;;;;2.8;2.6;;;;;;;9.77;62.51953;94951.48;;;;
2021/04/12 02:56:47;;;;;;;2.8;2.6;;;;;;;9.77;62.51953;94951.48;;;;
2021/04/12 02:58:10;;;;;;;3.95;3.65;;;;;;;9.67;62.88965;94954.91;;;;
2021/04/12 02:59:57;;;;;;;3.95;3.65;;;;;;;9.67;62.88965;94954.91;;;;
2021/04/12 03:01:15;;;;;;;3.95;3.65;;;;;;;9.67;62.88965;94954.91;;;;
2021/04/12 03:02:33;;;;;;;3.95;3.65;;;;;;;9.67;62.88965;94954.91;;;;
2021/04/12 03:03:48;;;;;;;3.95;3.65;;;;;;;9.67;62.88965;94954.91;;;;
2021/04/12 03:05:02;;;;;;;3.95;3.65;;;;;;;9.67;62.88965;94954.91;;;;
2021/04/12 03:06:22;;;;;;;3.95;3.65;;;;;;;9.67;62.88965;94954.91;;;;
2021/04/12 03:07:46;;;;;;;3.95;3.65;;;;;;;9.67;62.88965;94954.91;;;;
2021/04/12 03:09:07;;;;;;;4.65;4.25;;;;;;;9.61;63.4707;94958.97;;;;
2021/04/12 03:10:31;;;;;;;4.65;4.25;;;;;;;9.61;63.4707;94958.97;;;;
2021/04/12 03:11:50;;;;;;;4.65;4.25;;;;;;;9.61;63.4707;94958.97;;;;
2021/04/12 03:13:01;;;;;;;4.65;4.25;;;;;;;9.61;63.4707;94958.97;;;;
2021/04/12 03:15:25;;;;;;;4.65;4.25;;;;;;;9.61;63.4707;94958.97;;;;
2021/04/12 03:17:50;;;;;;;4.65;4.25;;;;;;;9.61;63.4707;94958.97;;;;
2021/04/12 03:19:02;;;;;;;5;4.3;;;;;;;9.52;63.55469;94973.35;;;;
2021/04/12 03:21:26;;;;;;;5;4.3;;;;;;;9.52;63.55469;94973.35;;;;
2021/04/12 03:22:43;;;;;;;5;4.3;;;;;;;9.52;63.55469;94973.35;;;;
2021/04/12 03:24:03;;;;;;;5;4.3;;;;;;;9.52;63.55469;94973.35;;;;
2021/04/12 03:25:15;;;;;;;5;4.3;;;;;;;9.52;63.55469;94973.35;;;;
2021/04/12 03:26:32;;;;;;;5;4.3;;;;;;;9.52;63.55469;94973.35;;;;
2021/04/12 03:27:46;;;;;;;5;4.3;;;;;;;9.52;63.55469;94973.35;;;;
2021/04/12 03:28:59;;;;;;;5;4.3;;;;;;;9.52;63.55469;94973.35;;;;
2021/04/12 03:30:09;;;;;;;5.400001;4.95;;;;;;;9.52;64.05859;94966.61;;;;
2021/04/12 03:31:23;;;;;;;5.400001;4.95;;;;;;;9.52;64.05859;94966.61;;;;
2021/04/12 03:32:42;;;;;;;5.400001;4.95;;;;;;;9.52;64.05859;94966.61;;;;
2021/04/12 03:33:58;;;;;;;5.400001;4.95;;;;;;;9.52;64.05859;94966.61;;;;
2021/04/12 03:35:10;;;;;;;5.400001;4.95;;;;;;;9.52;64.05859;94966.61;;;;
2021/04/12 03:36:18;;;;;;;5.400001;4.95;;;;;;;9.52;64.05859;94966.61;;;;
2021/04/12 03:37:30;;;;;;;5.400001;4.95;;;;;;;9.52;64.05859;94966.61;;;;
2021/04/12 03:38:41;;;;;;;5.400001;4.95;;;;;;;9.52;64.05859;94966.61;;;;
2021/04/12 03:39:48;;;;;;;5.400001;4.95;;;;;;;9.52;64.05859;94966.61;;;;
2021/04/12 03:40:55;;;;;;;8.400001;7.599999;;;;;;;9.44;64.20605;94979.5;;;;
2021/04/12 03:42:14;;;;;;;8.400001;7.599999;;;;;;;9.44;64.20605;94979.5;;;;
2021/04/12 03:43:29;;;;;;;8.400001;7.599999;;;;;;;9.44;64.20605;94979.5;;;;
2021/04/12 03:44:49;;;;;;;8.400001;7.599999;;;;;;;9.44;64.20605;94979.5;;;;
2021/04/12 03:46:10;;;;;;;8.400001;7.599999;;;;;;;9.44;64.20605;94979.5;;;;
2021/04/12 03:47:22;;;;;;;8.400001;7.599999;;;;;;;9.44;64.20605;94979.5;;;;
2021/04/12 03:48:40;;;;;;;8.400001;7.599999;;;;;;;9.44;64.20605;94979.5;;;;
2021/04/12 03:49:56;;;;;;;8.400001;7.599999;;;;;;;9.44;64.20605;94979.5;;;;
2021/04/12 03:51:14;;;;;;;7.699999;6.799999;;;;;;;9.25;65.4834;94992.41;;;;
2021/04/12 03:52:30;;;;;;;7.699999;6.799999;;;;;;;9.25;65.4834;94992.41;;;;
2021/04/12 03:58:54;;;;;;;7.699999;6.799999;;;;;;;9.25;65.4834;94992.41;;;;
2021/04/12 04:00:33;;;;;;;7.699999;6.799999;;;;;;;9.25;65.4834;94992.41;;;;
2021/04/12 04:02:17;;;;;;;7.200001;5.95;;;;;;;8.94;66.2168;95007.54;;;;
2021/04/12 04:03:39;;;;;;;7.200001;5.95;;;;;;;8.94;66.2168;95007.54;;;;
2021/04/12 04:04:53;;;;;;;7.200001;5.95;;;;;;;8.94;66.2168;95007.54;;;;
2021/04/12 04:10:12;;;;;;;7.200001;5.95;;;;;;;8.94;66.2168;95007.54;;;;
2021/04/12 04:11:32;;;;;;;7.200001;5.95;;;;;;;8.94;66.2168;95007.54;;;;
2021/04/12 04:12:47;;;;;;;5.05;4.5;;;;;;;8.47;67.00977;95025.08;;;;
2021/04/12 04:14:07;;;;;;;5.05;4.5;;;;;;;8.47;67.00977;95025.08;;;;
2021/04/12 04:15:18;;;;;;;5.05;4.5;;;;;;;8.47;67.00977;95025.08;;;;
2021/04/12 04:16:27;;;;;;;5.05;4.5;;;;;;;8.47;67.00977;95025.08;;;;
2021/04/12 04:17:39;;;;;;;5.05;4.5;;;;;;;8.47;67.00977;95025.08;;;;
2021/04/12 04:19:02;;;;;;;5.05;4.5;;;;;;;8.47;67.00977;95025.08;;;;
2021/04/12 04:20:11;;;;;;;5.05;4.5;;;;;;;8.47;67.00977;95025.08;;;;
2021/04/12 04:21:27;;;;;;;5.05;4.5;;;;;;;8.47;67.00977;95025.08;;;;
2021/04/12 04:22:54;;;;;;;7.550001;6.2;;;;;;;8.09;67.7832;95047.8;;;;
2021/04/12 04:24:07;;;;;;;7.550001;6.2;;;;;;;8.09;67.7832;95047.8;;;;
2021/04/12 04:29:30;;;;;;;7.550001;6.2;;;;;;;8.09;67.7832;95047.8;;;;
2021/04/12 04:30:50;;;;;;;7.550001;6.2;;;;;;;8.09;67.7832;95047.8;;;;
2021/04/12 04:32:21;;;;;;;7.550001;6.2;;;;;;;8.09;67.7832;95047.8;;;;
2021/04/12 04:33:50;;;;;;;7.399999;6.249999;;;;;;;7.81;68.36914;95069.84;;;;
2021/04/12 04:39:17;;;;;;;7.399999;6.249999;;;;;;;7.81;68.36914;95069.84;;;;
2021/04/12 04:40:41;;;;;;;7.399999;6.249999;;;;;;;7.81;68.36914;95069.84;;;;
2021/04/12 04:41:52;;;;;;;7.399999;6.249999;;;;;;;7.81;68.36914;95069.84;;;;
2021/04/12 04:43:04;;;;;;;7.399999;6.249999;;;;;;;7.81;68.36914;95069.84;;;;
2021/04/12 04:44:17;;;;;;;5.000001;4.500001;;;;;;;7.6;69.69531;95114.71;;;;
2021/04/12 04:45:34;;;;;;;5.000001;4.500001;;;;;;;7.6;69.69531;95114.71;;;;
2021/04/12 04:50:52;;;;;;;5.000001;4.500001;;;;;;;7.6;69.69531;95114.71;;;;
2021/04/12 04:52:11;;;;;;;5.000001;4.500001;;;;;;;7.6;69.69531;95114.71;;;;
2021/04/12 04:53:38;;;;;;;5.000001;4.500001;;;;;;;7.6;69.69531;95114.71;;;;
2021/04/12 04:54:58;;;;;;;5.4;4.8;;;;;;;7.13;70.52441;95125.98;;;;
2021/04/12 04:56:17;;;;;;;5.4;4.8;;;;;;;7.13;70.52441;95125.98;;;;
2021/04/12 04:57:24;;;;;;;5.4;4.8;;;;;;;7.13;70.52441;95125.98;;;;
2021/04/12 04:58:37;;;;;;;5.4;4.8;;;;;;;7.13;70.52441;95125.98;;;;
2021/04/12 04:59:55;;;;;;;5.4;4.8;;;;;;;7.13;70.52441;95125.98;;;;
2021/04/12 05:01:12;;;;;;;5.4;4.8;;;;;;;7.13;70.52441;95125.98;;;;
2021/04/12 05:02:26;;;;;;;5.4;4.8;;;;;;;7.13;70.52441;95125.98;;;;
2021/04/12 05:04:21;;;;;;;5.4;4.8;;;;;;;7.13;70.52441;95125.98;;;;
2021/04/12 05:06:13;;;;;;;6.9;5;;;;;;;6.71;71.21973;95137.02;;;;
2021/04/12 05:07:33;;;;;;;6.9;5;;;;;;;6.71;71.21973;95137.02;;;;
2021/04/12 05:09:16;;;;;;;6.9;5;;;;;;;6.71;71.21973;95137.02;;;;
2021/04/12 05:10:27;;;;;;;6.9;5;;;;;;;6.71;71.21973;95137.02;;;;
2021/04/12 05:11:43;;;;;;;6.9;5;;;;;;;6.71;71.21973;95137.02;;;;
2021/04/12 05:13:08;;;;;;;6.9;5;;;;;;;6.71;71.21973;95137.02;;;;
2021/04/12 05:14:16;;;;;;;6.9;5;;;;;;;6.71;71.21973;95137.02;;;;
2021/04/12 05:15:45;;;;;;;6.9;5;;;;;;;6.71;71.21973;95137.02;;;;
2021/04/12 05:17:11;;;;;;;4.85;4.35;;;;;;;6.35;71.66992;95199.69;;;;
2021/04/12 05:18:32;;;;;;;4.85;4.35;;;;;;;6.35;71.66992;95199.69;;;;
2021/04/12 05:19:43;;;;;;;4.85;4.35;;;;;;;6.35;71.66992;95199.69;;;;
2021/04/12 05:21:00;;;;;;;4.85;4.35;;;;;;;6.35;71.66992;95199.69;;;;
2021/04/12 05:22:17;;;;;;;4.85;4.35;;;;;;;6.35;71.66992;95199.69;;;;
2021/04/12 05:23:30;;;;;;;4.85;4.35;;;;;;;6.35;71.66992;95199.69;;;;
2021/04/12 05:24:48;;;;;;;4.85;4.35;;;;;;;6.35;71.66992;95199.69;;;;
2021/04/12 05:25:58;;;;;;;4.85;4.35;;;;;;;6.35;71.66992;95199.69;;;;
2021/04/12 05:27:17;;;;;;;3.75;3.45;;;;;;;5.92;72.90137;95225.9;;;;
2021/04/12 05:28:36;;;;;;;3.75;3.45;;;;;;;5.92;72.90137;95225.9;;;;
2021/04/12 05:29:54;;;;;;;3.75;3.45;;;;;;;5.92;72.90137;95225.9;;;;
2021/04/12 05:31:24;;;;;;;3.75;3.45;;;;;;;5.92;72.90137;95225.9;;;;
2021/04/12 05:32:43;;;;;;;3.75;3.45;;;;;;;5.92;72.90137;95225.9;;;;
2021/04/12 05:33:54;;;;;;;3.75;3.45;;;;;;;5.92;72.90137;95225.9;;;;
2021/04/12 05:35:14;;;;;;;3.75;3.45;;;;;;;5.92;72.90137;95225.9;;;;
2021/04/12 05:36:31;;;;;;;3.75;3.45;;;;;;;5.92;72.90137;95225.9;;;;
2021/04/12 05:37:45;;;;;;;3.05;2.85;;;;;;;5.41;73.24902;95245.36;;;;
2021/04/12 05:43:12;;;;;;;3.05;2.85;;;;;;;5.41;73.24902;95245.36;;;;
2021/04/12 05:44:22;;;;;;;3.05;2.85;;;;;;;5.41;73.24902;95245.36;;;;
2021/04/12 05:45:35;;;;;;;3.05;2.85;;;;;;;5.41;73.24902;95245.36;;;;
2021/04/12 05:46:58;;;;;;;3.05;2.85;;;;;;;5.41;73.24902;95245.36;;;;
2021/04/12 05:48:28;;;;;;;2.45;2.25;;;;;;;4.79;73.58008;95299.05;;;;
2021/04/12 05:49:51;;;;;;;2.45;2.25;;;;;;;4.79;73.58008;95299.05;;;;
2021/04/12 05:51:44;;;;;;;2.45;2.25;;;;;;;4.79;73.58008;95299.05;;;;
2021/04/12 05:52:59;;;;;;;2.45;2.25;;;;;;;4.79;73.58008;95299.05;;;;
2021/04/12 05:54:18;;;;;;;2.45;2.25;;;;;;;4.79;73.58008;95299.05;;;;
2021/04/12 05:55:28;;;;;;;2.45;2.25;;;;;;;4.79;73.58008;95299.05;;;;
2021/04/12 05:56:48;;;;;;;2.45;2.25;;;;;;;4.79;73.58008;95299.05;;;;
2021/04/12 05:58:12;;;;;;;2.45;2.25;;;;;;;4.79;73.58008;95299.05;;;;
2021/04/12 05:59:23;;;;;;;2.35;2.15;;;;;;;4.16;73.83887;95323.81;;;;
2021/04/12 06:00:37;;;;;;;2.35;2.15;;;;;;;4.16;73.83887;95323.81;;;;
2021/04/12 06:01:50;;;;;;;2.35;2.15;;;;;;;4.16;73.83887;95323.81;;;;
2021/04/12 06:03:06;;;;;;;2.35;2.15;;;;;;;4.16;73.83887;95323.81;;;;
2021/04/12 06:04:14;;;;;;;2.35;2.15;;;;;;;4.16;73.83887;95323.81;;;;
2021/04/12 06:05:29;;;;;;;2.35;2.15;;;;;;;4.16;73.83887;95323.81;;;;
2021/04/12 06:06:36;;;;;;;2.35;2.15;;;;;;;4.16;73.83887;95323.81;;;;
2021/04/12 06:07:57;;;;;;;2.35;2.15;;;;;;;4.16;73.83887;95323.81;;;;
2021/04/12 06:13:18;;;;;;;2.85;2.45;;;;;;;3.75;74.67578;95346.09;;;;
2021/04/12 06:14:49;;;;;;;2.85;2.45;;;;;;;3.75;74.67578;95346.09;;;;
2021/04/12 06:16:27;;;;;;;2.85;2.45;;;;;;;3.75;74.67578;95346.09;;;;
2021/04/12 06:18:24;;;;;;;2.85;2.45;;;;;;;3.75;74.67578;95346.09;;;;
2021/04/12 06:19:58;;;;;;;2.95;2.15;;;;;;;3.5;75.02051;95363.01;;;;
2021/04/12 06:21:18;;;;;;;2.95;2.15;;;;;;;3.5;75.02051;95363.01;;;;
2021/04/12 06:22:29;;;;;;;2.95;2.15;;;;;;;3.5;75.02051;95363.01;;;;
2021/04/12 06:23:48;;;;;;;2.95;2.15;;;;;;;3.5;75.02051;95363.01;;;;
2021/04/12 06:24:57;;;;;;;2.95;2.15;;;;;;;3.5;75.02051;95363.01;;;;
2021/04/12 06:26:45;;;;;;;2.95;2.15;;;;;;;3.5;75.02051;95363.01;;;;
2021/04/12 06:29:18;;;;;;;2.95;2.15;;;;;;;3.5;75.02051;95363.01;;;;
2021/04/12 06:30:33;;;;;;;2.95;2.15;;;;;;;3.5;75.02051;95363.01;;;;
2021/04/12 06:31:45;;;;;;;2.85;2.45;;;;;;;3.3;75.57324;95379.83;;;;
2021/04/12 06:33:10;;;;;;;2.85;2.45;;;;;;;3.3;75.57324;95379.83;;;;
2021/04/12 06:34:38;;;;;;;2.85;2.45;;;;;;;3.3;75.57324;95379.83;;;;
2021/04/12 06:40:08;;;;;;;2.85;2.45;;;;;;;3.3;75.57324;95379.83;;;;
2021/04/12 06:41:41;;;;;;;3.1;2.35;;;;;;;3.09;75.96973;95444.12;;;;
2021/04/12 06:47:13;;;;;;;3.1;2.35;;;;;;;3.09;75.96973;95444.12;;;;
2021/04/12 06:48:37;;;;;;;3.1;2.35;;;;;;;3.09;75.96973;95444.12;;;;
2021/04/12 06:50:45;;;;;;;3.1;2.35;;;;;;;3.09;75.96973;95444.12;;;;
2021/04/12 06:52:09;;;;;;;4.05;2.85;;;;;;;2.88;76.58301;95448.17;;;;
2021/04/12 06:53:38;;;;;;;4.05;2.85;;;;;;;2.88;76.58301;95448.17;;;;
2021/04/12 06:59:19;;;;;;;4.05;2.85;;;;;;;2.88;76.58301;95448.17;;;;
2021/04/12 07:01:06;;;;;;;4.05;2.85;;;;;;;2.88;76.58301;95448.17;;;;
2021/04/12 07:02:45;;;;;;;2.95;2.65;;;;;;;2.77;79.06055;95476.62;;;;
2021/04/12 07:08:24;;;;;;;2.95;2.65;;;;;;;2.77;79.06055;95476.62;;;;
2021/04/12 07:10:44;;;;;;;2.95;2.65;;;;;;;2.77;79.06055;95476.62;;;;
2021/04/12 07:12:05;;;;;;;2.95;2.65;;;;;;;2.77;79.06055;95476.62;;;;
2021/04/12 07:17:33;;;;;;;3.35;2.95;;;;;;;2.76;81.52539;95509.53;;;;
2021/04/12 07:18:56;;;;;;;3.35;2.95;;;;;;;2.76;81.52539;95509.53;;;;
2021/04/12 07:21:02;;;;;;;3.35;2.95;;;;;;;2.76;81.52539;95509.53;;;;
2021/04/12 07:22:28;;;;;;;3.35;2.95;;;;;;;2.76;81.52539;95509.53;;;;
2021/04/12 07:23:44;;;;;;;3.35;2.95;;;;;;;2.76;81.52539;95509.53;;;;
2021/04/12 07:25:22;;;;;;;3.4;2.75;;;;;;;2.87;84.14258;95549.16;;;;
2021/04/12 07:26:53;;;;;;;3.4;2.75;;;;;;;2.87;84.14258;95549.16;;;;
2021/04/12 07:32:25;;;;;;;3.4;2.75;;;;;;;2.87;84.14258;95549.16;;;;
2021/04/12 07:33:54;;;;;;;3.4;2.75;;;;;;;2.87;84.14258;95549.16;;;;
2021/04/12 07:35:09;;;;;;;4.5;3.25;;;;;;;2.96;86.79102;95571.15;;;;
2021/04/12 07:36:34;;;;;;;4.5;3.25;;;;;;;2.96;86.79102;95571.15;;;;
2021/04/12 07:38:02;;;;;;;4.5;3.25;;;;;;;2.96;86.79102;95571.15;;;;
2021/04/12 07:43:42;;;;;;;4.5;3.25;;;;;;;2.96;86.79102;95571.15;;;;
2021/04/12 07:45:19;;;;;;;4.5;3.25;;;;;;;2.96;86.79102;95571.15;;;;
2021/04/12 07:51:02;;;;;;;3.7;3.05;;;;;;;3.07;88.60449;95594.29;;;;
2021/04/12 07:52:31;;;;;;;3.7;3.05;;;;;;;3.07;88.60449;95594.29;;;;
2021/04/12 07:54:17;;;;;;;3.7;3.05;;;;;;;3.07;88.60449;95594.29;;;;
2021/04/12 07:55:46;;;;;;;3.7;3.05;;;;;;;3.07;88.60449;95594.29;;;;
2021/04/12 08:05:02;;;;;;;4.749999;3.4;;;;;;;3.24;90.91113;95613.1;;;;
2021/04/12 08:06:42;;;;;;;6.05;3.45;;;;;;;3.55;92.97754;95614.18;;;;
2021/04/12 08:08:23;;;;;;;6.05;3.45;;;;;;;3.55;92.97754;95614.18;;;;
2021/04/12 08:09:35;;;;;;;6.05;3.45;;;;;;;3.55;92.97754;95614.18;;;;
2021/04/12 08:10:56;;;;;;;6.05;3.45;;;;;;;3.55;92.97754;95614.18;;;;
2021/04/12 08:16:20;;;;;;;6.05;3.45;;;;;;;3.55;92.97754;95614.18;;;;
2021/04/12 08:18:01;;;;;;;8.450002;3.95;;;;;;;3.8;93.56445;95638.31;;;;
2021/04/12 08:19:25;;;;;;;8.450002;3.95;;;;;;;3.8;93.56445;95638.31;;;;
2021/04/12 08:20:41;;;;;;;8.450002;3.95;;;;;;;3.8;93.56445;95638.31;;;;
2021/04/12 08:22:15;;;;;;;8.450002;3.95;;;;;;;3.8;93.56445;95638.31;;;;
2021/04/12 08:23:46;;;;;;;8.450002;3.95;;;;;;;3.8;93.56445;95638.31;;;;
2021/04/12 08:25:32;;;;;;;8.450002;3.95;;;;;;;3.8;93.56445;95638.31;;;;
2021/04/12 08:27:23;;;;;;;8.450002;3.95;;;;;;;3.8;93.56445;95638.31;;;;
2021/04/12 08:28:59;;;;;;;7.35;3.950001;;;;;;;3.87;94.22949;95666.77;;;;
2021/04/12 08:34:18;;;;;;;7.35;3.950001;;;;;;;3.87;94.22949;95666.77;;;;
2021/04/12 08:39:46;;;;;;;5.550001;3.9;;;;;;;3.89;96.18066;95683.44;;;;
2021/04/12 08:40:58;;;;;;;5.550001;3.9;;;;;;;3.89;96.18066;95683.44;;;;
2021/04/12 08:42:35;;;;;;;5.550001;3.9;;;;;;;3.89;96.18066;95683.44;;;;
2021/04/12 08:44:08;;;;;;;5.550001;3.9;;;;;;;3.89;96.18066;95683.44;;;;
2021/04/12 08:46:05;;;;;;;5.550001;3.9;;;;;;;3.89;96.18066;95683.44;;;;
2021/04/12 08:47:37;;;;;;;5.550001;3.9;;;;;;;3.89;96.18066;95683.44;;;;
2021/04/12 08:49:00;;;;;;;5.550001;3.9;;;;;;;3.89;96.18066;95683.44;;;;
2021/04/12 08:50:13;;;;;;;6.2;4.199999;;;;;;;4.12;97.25684;95706.05;;;;
2021/04/12 08:51:29;;;;;;;6.2;4.199999;;;;;;;4.12;97.25684;95706.05;;;;
2021/04/12 08:52:55;;;;;;;6.2;4.199999;;;;;;;4.12;97.25684;95706.05;;;;
2021/04/12 08:54:17;;;;;;;6.2;4.199999;;;;;;;4.12;97.25684;95706.05;;;;
2021/04/12 08:55:51;;;;;;;6.2;4.199999;;;;;;;4.12;97.25684;95706.05;;;;
2021/04/12 08:57:23;;;;;;;6.2;4.199999;;;;;;;4.12;97.25684;95706.05;;;;
2021/04/12 08:58:54;;;;;;;6.2;4.199999;;;;;;;4.12;97.25684;95706.05;;;;
2021/04/12 09:00:06;;;;;;;4.899999;4.100001;;;;;;;4.37;97.87988;95718.09;;;;
2021/04/12 09:01:23;;;;;;;4.899999;4.100001;;;;;;;4.37;97.87988;95718.09;;;;
2021/04/12 09:02:46;;;;;;;4.899999;4.100001;;;;;;;4.37;97.87988;95718.09;;;;
2021/04/12 09:04:14;;;;;;;4.899999;4.100001;;;;;;;4.37;97.87988;95718.09;;;;
2021/04/12 09:06:35;;;;;;;4.899999;4.100001;;;;;;;4.37;97.87988;95718.09;;;;
2021/04/12 09:08:11;;;;;;;4.899999;4.100001;;;;;;;4.37;97.87988;95718.09;;;;
2021/04/12 09:09:56;;;;;;;4.899999;4.100001;;;;;;;4.37;97.87988;95718.09;;;;
2021/04/12 09:11:22;;;;;;;6.2;4.199999;;;;;;;4.53;98.36719;95737.92;;;;
2021/04/12 09:12:44;;;;;;;6.2;4.199999;;;;;;;4.53;98.36719;95737.92;;;;
2021/04/12 09:13:59;;;;;;;6.2;4.199999;;;;;;;4.53;98.36719;95737.92;;;;
2021/04/12 09:20:22;;;;;;;6.2;4.199999;;;;;;;4.53;98.36719;95737.92;;;;
2021/04/12 09:21:36;;;;;;;5.099999;4;;;;;;;4.91;97.53223;95753.16;;;;
2021/04/12 09:23:07;;;;;;;5.099999;4;;;;;;;4.91;97.53223;95753.16;;;;
2021/04/12 09:24:27;;;;;;;5.099999;4;;;;;;;4.91;97.53223;95753.16;;;;
2021/04/12 09:25:46;;;;;;;5.099999;4;;;;;;;4.91;97.53223;95753.16;;;;
2021/04/12 09:27:09;;;;;;;5.099999;4;;;;;;;4.91;97.53223;95753.16;;;;